Aérodrome :
LOGIN :

S'inscrire | Disclaimer

   EN    FR    IT 

 










Légende :    VFR   VFR Marginal   IFR   IFR Intensif   IFR Très Intensif
Visi : 
Plafond : 
>= 8 km
>= 3000ft
5 à 8 km
1000 à 3000 ft
1500m à 5 km
500 à 1000 ft
800 à 1500m
200 à 500 ft
< 800m
< 200 ft
Symboles :   Orages  Brouillard  Fortes neiges  Fortes précipitations  Vent > 20 kt
SIGMETs :   Divers  Orages  Givrage  Turbulence  Onde Orograph.  Cendres Volcan.






- Altitude de l'aérodrome : 22 ft
- Code IATA : SKG


LGTS - Thessaloniki

DERNIER METAR :
  • 131150Z 13009KT 9999 FEW008 BKN030 18/13 Q1011 NOSIG

METARs EXPIRÉS :
  • 131120Z 12006KT 9999 FEW008 FEW018TCU BKN025 18/13 Q1011 NOSIG
  • 131050Z 13004KT 9999 FEW008 FEW018TCU BKN025 18/13 Q1011 NOSIG
  • 131020Z 10008KT 9999 -RA FEW008 FEW018TCU BKN025 18/14 Q1011 NOSIG
  • 130950Z 10012KT 9999 FEW008 FEW018TCU BKN025 18/14 Q1011 NOSIG
  • 130920Z 09010KT 9999 FEW008 FEW018TCU BKN025 18/14 Q1012 NOSIG
  • 130850Z 10010KT 9999 FEW008 FEW018TCU BKN025 18/14 Q1012 NOSIG

TAF TAF LGTS
Valide du 13 à 12h jusqu'au 14 à 12h UTC


131100Z 1312/1412 13012KT 9999 SCT025
BECMG 1400/1402 VRB03KT 5000 BR SCT008 SCT020
BECMG 1408/1410 9999 SCT025



MET'MAP, la Météo Aéronautique d'un coup d'oeil ! - Copyright ORBIFLY Décembre 2007 - Disclaimer

ORBIFLY MET'MAP TEAM :

Programmation & Développement : Alexandra Zaïnal
Conception & Développement : Baudouin d'Aumeries
Co-Programmation & Développement : Marc-Olivier Méhu
Soutien technique & logistique : Manuel Goepfert

Contact : metmap@orbifly.com




SOURCES & CREDITS :

   NOAA